createdAt,value
2022-10-21T00:01:56.441Z,14.40
2022-10-21T00:08:56.789Z,14.40
2022-10-21T00:16:03.267Z,14.40
2022-10-21T00:23:03.702Z,14.40
2022-10-21T00:30:06.904Z,14.30
2022-10-21T00:37:07.069Z,14.30
2022-10-21T00:44:12.058Z,14.20
2022-10-21T00:51:18.388Z,14.20
2022-10-21T00:58:24.686Z,14.10
2022-10-21T01:05:26.495Z,14.10
2022-10-21T01:12:56.480Z,14.10
2022-10-21T01:19:59.450Z,14.00
2022-10-21T01:27:05.663Z,13.90
2022-10-21T01:34:20.819Z,13.90
2022-10-21T01:41:26.213Z,13.90
2022-10-21T01:48:31.430Z,13.80
2022-10-21T01:55:32.768Z,13.80
2022-10-21T02:02:37.779Z,13.80
2022-10-21T02:09:38.462Z,13.80
2022-10-21T02:16:41.129Z,13.80
2022-10-21T02:23:58.122Z,13.70
2022-10-21T02:31:16.587Z,13.70
2022-10-21T02:38:22.845Z,13.80
2022-10-21T02:45:23.518Z,13.70
2022-10-21T02:52:23.823Z,13.80
2022-10-21T02:59:24.417Z,13.70
2022-10-21T03:06:25.002Z,13.70
2022-10-21T03:13:25.612Z,13.70
2022-10-21T03:20:25.875Z,13.70
2022-10-21T03:27:27.475Z,13.80
2022-10-21T03:34:28.047Z,13.90
2022-10-21T03:41:28.309Z,13.90
2022-10-21T03:48:28.625Z,13.90
2022-10-21T03:55:29.327Z,13.90
2022-10-21T04:02:29.528Z,13.90
2022-10-21T04:09:29.973Z,13.90
2022-10-21T04:16:30.581Z,13.90
2022-10-21T04:23:31.450Z,13.90
2022-10-21T04:30:31.659Z,14.00
2022-10-21T04:37:32.296Z,14.00
2022-10-21T04:44:33.224Z,14.10
2022-10-21T04:51:33.601Z,14.10
2022-10-21T04:58:34.104Z,14.20
2022-10-21T05:05:34.959Z,14.20
2022-10-21T05:19:41.522Z,14.30
2022-10-21T05:26:42.148Z,14.30
2022-10-21T05:33:42.535Z,14.40
2022-10-21T05:40:43.002Z,14.50
2022-10-21T05:47:44.483Z,14.50
2022-10-21T05:54:45.248Z,14.60
2022-10-21T06:01:45.476Z,14.60
2022-10-21T06:08:46.495Z,14.60
2022-10-21T06:15:50.977Z,14.70
2022-10-21T06:22:51.628Z,14.70
2022-10-21T06:29:52.035Z,14.70
2022-10-21T06:36:52.553Z,14.80
2022-10-21T06:43:53.056Z,14.80
2022-10-21T06:50:59.068Z,14.80
2022-10-21T06:57:59.768Z,14.80
2022-10-21T07:05:00.285Z,14.90
2022-10-21T07:12:00.902Z,14.90
2022-10-21T07:19:01.709Z,15.00
2022-10-21T07:26:09.151Z,15.00
2022-10-21T07:33:10.817Z,15.00
2022-10-21T07:40:12.178Z,15.10
2022-10-21T07:47:12.337Z,15.10
2022-10-21T07:54:14.433Z,15.10
2022-10-21T08:01:16.341Z,15.10
2022-10-21T08:08:17.090Z,15.10
2022-10-21T08:15:17.659Z,15.10
2022-10-21T08:22:17.959Z,15.20
2022-10-21T08:29:18.594Z,15.30
2022-10-21T08:36:24.792Z,15.20
2022-10-21T08:43:29.384Z,15.20
2022-10-21T08:50:36.528Z,15.20
2022-10-21T08:57:37.331Z,15.10
2022-10-21T09:04:49.294Z,15.10
2022-10-21T09:12:20.027Z,15.10
2022-10-21T09:19:38.390Z,15.20
2022-10-21T09:26:44.309Z,15.20
2022-10-21T09:33:47.475Z,15.20
2022-10-21T09:40:51.764Z,15.10
2022-10-21T09:48:05.218Z,15.10
2022-10-21T09:55:06.520Z,15.10
2022-10-21T10:02:15.476Z,15.20
2022-10-21T10:09:30.480Z,15.20
2022-10-21T10:16:32.957Z,15.30
2022-10-21T10:23:47.381Z,15.40
2022-10-21T10:30:52.484Z,15.50
2022-10-21T10:37:54.101Z,15.50
2022-10-21T10:44:58.075Z,15.60
2022-10-21T10:52:21.120Z,15.60
2022-10-21T10:59:29.087Z,15.80
2022-10-21T11:06:36.483Z,15.90
2022-10-21T11:13:42.122Z,15.90
2022-10-21T11:21:13.652Z,16.00
2022-10-21T11:28:31.574Z,16.00
2022-10-21T11:35:38.584Z,16.10
2022-10-21T11:42:45.348Z,16.10
2022-10-21T11:49:54.033Z,16.30
2022-10-21T11:57:00.433Z,16.40
2022-10-21T12:04:10.259Z,16.60
2022-10-21T12:11:20.199Z,16.70
2022-10-21T12:18:23.469Z,17.00
2022-10-21T12:25:38.522Z,17.30
2022-10-21T12:32:51.461Z,17.70
2022-10-21T12:40:33.286Z,17.90
2022-10-21T12:47:45.029Z,18.30
2022-10-21T12:55:00.843Z,18.60
2022-10-21T13:02:07.885Z,18.80
2022-10-21T13:09:34.091Z,18.80
2022-10-21T13:16:41.322Z,18.90
2022-10-21T13:23:44.433Z,18.90
2022-10-21T13:30:50.975Z,18.90
2022-10-21T13:37:56.896Z,18.90
2022-10-21T13:45:07.857Z,18.90
2022-10-21T13:52:11.242Z,19.40
2022-10-21T13:59:26.635Z,19.60
2022-10-21T14:06:32.471Z,19.70
2022-10-21T14:13:36.843Z,19.90
2022-10-21T14:20:38.072Z,20.10
2022-10-21T14:27:39.168Z,20.10
2022-10-21T14:35:10.062Z,20.30
2022-10-21T14:42:21.117Z,20.10
2022-10-21T14:49:33.856Z,19.90
2022-10-21T14:56:42.827Z,19.70
2022-10-21T15:03:45.968Z,19.40
2022-10-21T15:11:08.024Z,19.10
2022-10-21T15:18:11.661Z,19.10
2022-10-21T15:25:18.787Z,19.20
2022-10-21T15:32:24.257Z,19.10
2022-10-21T15:39:25.897Z,18.90
2022-10-21T15:46:27.488Z,18.70
2022-10-21T15:53:27.882Z,18.60
2022-10-21T16:00:28.297Z,18.50
2022-10-21T16:07:29.642Z,18.40
2022-10-21T16:14:31.092Z,18.30
2022-10-21T16:21:31.625Z,18.10
2022-10-21T16:28:32.084Z,18.00
2022-10-21T16:35:32.376Z,17.80
2022-10-21T16:42:32.710Z,17.70
2022-10-21T16:49:34.013Z,17.50
2022-10-21T16:56:34.508Z,17.30
2022-10-21T17:03:34.945Z,17.10
2022-10-21T17:10:35.511Z,17.00
2022-10-21T17:17:36.675Z,16.80
2022-10-21T17:24:37.170Z,16.70
2022-10-21T17:31:39.916Z,16.60
2022-10-21T17:38:41.831Z,16.40
2022-10-21T17:45:42.449Z,16.30
2022-10-21T17:52:43.459Z,16.20
2022-10-21T17:59:44.671Z,16.00
2022-10-21T18:06:45.042Z,15.90
2022-10-21T18:13:46.294Z,15.80
2022-10-21T18:20:47.481Z,15.70
2022-10-21T18:27:47.746Z,15.60
2022-10-21T18:34:48.264Z,15.50
2022-10-21T18:41:48.752Z,15.40
2022-10-21T18:48:49.948Z,15.30
2022-10-21T18:55:50.229Z,15.20
2022-10-21T19:02:50.807Z,15.10
2022-10-21T19:09:51.397Z,15.10
2022-10-21T19:16:51.999Z,15.00
2022-10-21T19:23:54.677Z,14.90
2022-10-21T19:30:55.061Z,14.80
2022-10-21T19:38:00.534Z,14.80
2022-10-21T19:45:03.930Z,14.70
2022-10-21T19:52:05.120Z,14.70
2022-10-21T19:59:05.878Z,14.60
2022-10-21T20:06:08.194Z,14.50
2022-10-21T20:13:08.748Z,14.40
2022-10-21T20:20:09.380Z,14.40
2022-10-21T20:27:10.291Z,14.40
2022-10-21T20:34:13.204Z,14.30
2022-10-21T20:41:23.217Z,14.30
2022-10-21T20:48:23.210Z,14.30
2022-10-21T20:55:23.764Z,14.30
2022-10-21T21:02:24.282Z,14.30
2022-10-21T21:16:45.829Z,14.20
2022-10-21T21:23:46.596Z,14.20
2022-10-21T21:30:53.140Z,14.10
2022-10-21T21:37:53.576Z,14.10
2022-10-21T21:44:53.841Z,14.10
2022-10-21T21:51:54.371Z,14.10
2022-10-21T21:58:57.497Z,14.00
2022-10-21T22:05:57.919Z,14.00
2022-10-21T22:12:58.445Z,14.00
2022-10-21T22:19:59.097Z,14.00
2022-10-21T22:27:01.015Z,13.90
2022-10-21T22:34:01.413Z,13.80
2022-10-21T22:41:05.100Z,13.80
2022-10-21T22:48:07.493Z,13.70
2022-10-21T22:55:08.258Z,13.70
2022-10-21T23:02:08.427Z,13.70
2022-10-21T23:09:09.105Z,13.70
2022-10-21T23:16:10.587Z,13.70
2022-10-21T23:23:11.351Z,13.70
2022-10-21T23:30:12.359Z,13.70
2022-10-21T23:37:12.674Z,13.80
2022-10-21T23:44:13.429Z,13.80
2022-10-21T23:51:13.887Z,13.80
2022-10-21T23:58:14.452Z,13.80
